sensor_id;sensor_type;location;lat;lon;timestamp;temperature;humidity
9802;DHT22;4940;50.900;4.672;2022-09-25T00:01:03;13.60;99.90
9802;DHT22;4940;50.900;4.672;2022-09-25T00:03:31;13.70;99.90
9802;DHT22;4940;50.900;4.672;2022-09-25T00:06:03;13.60;99.90
9802;DHT22;4940;50.900;4.672;2022-09-25T00:08:30;13.60;99.90
9802;DHT22;4940;50.900;4.672;2022-09-25T00:10:58;13.60;99.90
9802;DHT22;4940;50.900;4.672;2022-09-25T00:13:26;13.70;99.90
9802;DHT22;4940;50.900;4.672;2022-09-25T00:15:55;13.60;99.90
9802;DHT22;4940;50.900;4.672;2022-09-25T00:18:24;13.60;99.90
9802;DHT22;4940;50.900;4.672;2022-09-25T00:21:06;13.60;99.90
9802;DHT22;4940;50.900;4.672;2022-09-25T00:23:34;13.50;99.90
9802;DHT22;4940;50.900;4.672;2022-09-25T00:26:01;13.60;99.90
9802;DHT22;4940;50.900;4.672;2022-09-25T00:28:32;13.90;99.90
9802;DHT22;4940;50.900;4.672;2022-09-25T00:31:00;13.50;99.90
9802;DHT22;4940;50.900;4.672;2022-09-25T00:33:27;13.50;99.90
9802;DHT22;4940;50.900;4.672;2022-09-25T00:35:54;13.50;99.90
9802;DHT22;4940;50.900;4.672;2022-09-25T00:38:21;13.50;99.90
9802;DHT22;4940;50.900;4.672;2022-09-25T00:40:48;13.50;99.90
9802;DHT22;4940;50.900;4.672;2022-09-25T00:43:36;13.50;99.90
9802;DHT22;4940;50.900;4.672;2022-09-25T00:46:07;13.50;99.90
9802;DHT22;4940;50.900;4.672;2022-09-25T00:48:35;13.40;99.90
9802;DHT22;4940;50.900;4.672;2022-09-25T00:51:04;13.40;99.90
9802;DHT22;4940;50.900;4.672;2022-09-25T00:53:36;13.60;99.90
9802;DHT22;4940;50.900;4.672;2022-09-25T00:56:06;13.50;99.90
9802;DHT22;4940;50.900;4.672;2022-09-25T00:58:39;13.30;99.90
9802;DHT22;4940;50.900;4.672;2022-09-25T01:01:07;13.40;99.90
9802;DHT22;4940;50.900;4.672;2022-09-25T01:03:35;13.40;99.90
9802;DHT22;4940;50.900;4.672;2022-09-25T01:06:03;13.30;99.90
9802;DHT22;4940;50.900;4.672;2022-09-25T01:08:31;13.30;99.90
9802;DHT22;4940;50.900;4.672;2022-09-25T01:10:59;13.20;99.90
9802;DHT22;4940;50.900;4.672;2022-09-25T01:13:27;13.30;99.90
9802;DHT22;4940;50.900;4.672;2022-09-25T01:16:01;13.20;99.90
9802;DHT22;4940;50.900;4.672;2022-09-25T01:18:43;13.20;99.90
9802;DHT22;4940;50.900;4.672;2022-09-25T01:21:22;13.20;99.90
9802;DHT22;4940;50.900;4.672;2022-09-25T01:29:47;13.20;99.90
9802;DHT22;4940;50.900;4.672;2022-09-25T01:32:20;13.10;99.90
9802;DHT22;4940;50.900;4.672;2022-09-25T01:34:54;13.10;99.90
9802;DHT22;4940;50.900;4.672;2022-09-25T01:37:27;13.00;99.90
9802;DHT22;4940;50.900;4.672;2022-09-25T01:40:01;13.00;99.90
9802;DHT22;4940;50.900;4.672;2022-09-25T01:42:35;13.00;99.90
9802;DHT22;4940;50.900;4.672;2022-09-25T01:45:06;13.00;99.90
9802;DHT22;4940;50.900;4.672;2022-09-25T01:47:36;13.00;99.90
9802;DHT22;4940;50.900;4.672;2022-09-25T01:50:07;13.00;99.90
9802;DHT22;4940;50.900;4.672;2022-09-25T01:52:39;12.90;99.90
9802;DHT22;4940;50.900;4.672;2022-09-25T01:55:09;12.80;99.90
9802;DHT22;4940;50.900;4.672;2022-09-25T01:57:41;12.80;99.90
9802;DHT22;4940;50.900;4.672;2022-09-25T02:00:15;12.80;99.90
9802;DHT22;4940;50.900;4.672;2022-09-25T02:02:47;12.70;99.90
9802;DHT22;4940;50.900;4.672;2022-09-25T02:05:23;12.70;99.90
9802;DHT22;4940;50.900;4.672;2022-09-25T02:07:57;12.60;99.90
9802;DHT22;4940;50.900;4.672;2022-09-25T02:10:29;12.60;99.90
9802;DHT22;4940;50.900;4.672;2022-09-25T02:13:04;12.50;99.90
9802;DHT22;4940;50.900;4.672;2022-09-25T02:15:36;12.50;99.90
9802;DHT22;4940;50.900;4.672;2022-09-25T02:18:07;12.40;99.90
9802;DHT22;4940;50.900;4.672;2022-09-25T02:20:57;12.40;99.90
9802;DHT22;4940;50.900;4.672;2022-09-25T02:23:31;12.40;99.90
9802;DHT22;4940;50.900;4.672;2022-09-25T02:26:04;12.30;99.90
9802;DHT22;4940;50.900;4.672;2022-09-25T02:28:32;12.20;99.90
9802;DHT22;4940;50.900;4.672;2022-09-25T02:31:02;12.20;99.90
9802;DHT22;4940;50.900;4.672;2022-09-25T02:33:31;12.20;99.90
9802;DHT22;4940;50.900;4.672;2022-09-25T02:36:00;12.20;99.90
9802;DHT22;4940;50.900;4.672;2022-09-25T02:38:29;12.10;99.90
9802;DHT22;4940;50.900;4.672;2022-09-25T02:41:01;12.00;99.90
9802;DHT22;4940;50.900;4.672;2022-09-25T02:43:37;12.00;99.90
9802;DHT22;4940;50.900;4.672;2022-09-25T02:46:14;12.00;99.90
9802;DHT22;4940;50.900;4.672;2022-09-25T02:48:50;11.90;99.90
9802;DHT22;4940;50.900;4.672;2022-09-25T02:51:27;11.90;99.90
9802;DHT22;4940;50.900;4.672;2022-09-25T02:54:03;11.90;99.90
9802;DHT22;4940;50.900;4.672;2022-09-25T02:56:34;11.80;99.90
9802;DHT22;4940;50.900;4.672;2022-09-25T02:59:07;11.80;99.90
9802;DHT22;4940;50.900;4.672;2022-09-25T03:01:37;11.70;99.90
9802;DHT22;4940;50.900;4.672;2022-09-25T03:04:06;11.70;99.90
9802;DHT22;4940;50.900;4.672;2022-09-25T03:06:36;11.60;99.90
9802;DHT22;4940;50.900;4.672;2022-09-25T03:09:03;11.60;99.90
9802;DHT22;4940;50.900;4.672;2022-09-25T03:11:35;11.50;99.90
9802;DHT22;4940;50.900;4.672;2022-09-25T03:16:40;11.50;99.90
9802;DHT22;4940;50.900;4.672;2022-09-25T03:19:08;11.40;99.90
9802;DHT22;4940;50.900;4.672;2022-09-25T03:31:27;11.10;99.90
9802;DHT22;4940;50.900;4.672;2022-09-25T03:33:56;10.80;99.90
9802;DHT22;4940;50.900;4.672;2022-09-25T03:36:24;11.10;99.90
9802;DHT22;4940;50.900;4.672;2022-09-25T03:38:54;11.00;99.90
9802;DHT22;4940;50.900;4.672;2022-09-25T03:41:25;10.90;99.90
9802;DHT22;4940;50.900;4.672;2022-09-25T03:46:23;11.00;99.90
9802;DHT22;4940;50.900;4.672;2022-09-25T03:51:20;10.80;99.90
9802;DHT22;4940;50.900;4.672;2022-09-25T03:53:48;10.80;99.90
9802;DHT22;4940;50.900;4.672;2022-09-25T03:56:17;10.70;99.90
9802;DHT22;4940;50.900;4.672;2022-09-25T03:58:45;10.60;99.90
9802;DHT22;4940;50.900;4.672;2022-09-25T04:01:13;10.80;99.90
9802;DHT22;4940;50.900;4.672;2022-09-25T04:03:41;10.70;99.90
9802;DHT22;4940;50.900;4.672;2022-09-25T04:06:13;10.60;99.90
9802;DHT22;4940;50.900;4.672;2022-09-25T04:08:45;10.60;99.90
9802;DHT22;4940;50.900;4.672;2022-09-25T04:11:13;10.60;99.90
9802;DHT22;4940;50.900;4.672;2022-09-25T04:13:40;10.50;99.90
9802;DHT22;4940;50.900;4.672;2022-09-25T04:16:09;10.50;99.90
9802;DHT22;4940;50.900;4.672;2022-09-25T04:18:37;10.50;99.90
9802;DHT22;4940;50.900;4.672;2022-09-25T04:21:08;10.50;99.90
9802;DHT22;4940;50.900;4.672;2022-09-25T04:23:36;10.50;99.90
9802;DHT22;4940;50.900;4.672;2022-09-25T04:26:05;10.50;99.90
9802;DHT22;4940;50.900;4.672;2022-09-25T04:28:32;10.40;99.90
9802;DHT22;4940;50.900;4.672;2022-09-25T04:31:00;10.40;99.90
9802;DHT22;4940;50.900;4.672;2022-09-25T04:36:13;10.30;99.90
9802;DHT22;4940;50.900;4.672;2022-09-25T04:41:10;10.30;99.90
9802;DHT22;4940;50.900;4.672;2022-09-25T04:43:37;10.20;99.90
9802;DHT22;4940;50.900;4.672;2022-09-25T04:46:07;10.20;99.90
9802;DHT22;4940;50.900;4.672;2022-09-25T04:48:34;10.20;99.90
9802;DHT22;4940;50.900;4.672;2022-09-25T04:51:02;10.00;99.90
9802;DHT22;4940;50.900;4.672;2022-09-25T04:53:31;10.10;99.90
9802;DHT22;4940;50.900;4.672;2022-09-25T04:56:00;10.10;99.90
9802;DHT22;4940;50.900;4.672;2022-09-25T04:58:29;10.10;99.90
9802;DHT22;4940;50.900;4.672;2022-09-25T05:01:01;10.10;99.90
9802;DHT22;4940;50.900;4.672;2022-09-25T05:05:56;10.00;99.90
9802;DHT22;4940;50.900;4.672;2022-09-25T05:08:24;9.90;99.90
9802;DHT22;4940;50.900;4.672;2022-09-25T05:15:48;9.90;99.90
9802;DHT22;4940;50.900;4.672;2022-09-25T05:18:17;9.80;99.90
9802;DHT22;4940;50.900;4.672;2022-09-25T05:25:41;9.90;99.90
9802;DHT22;4940;50.900;4.672;2022-09-25T05:28:08;9.90;99.90
9802;DHT22;4940;50.900;4.672;2022-09-25T05:30:36;9.80;99.90
9802;DHT22;4940;50.900;4.672;2022-09-25T05:33:06;9.70;99.90
9802;DHT22;4940;50.900;4.672;2022-09-25T05:35:33;9.80;99.90
9802;DHT22;4940;50.900;4.672;2022-09-25T05:47:59;9.70;99.90
9802;DHT22;4940;50.900;4.672;2022-09-25T05:50:28;9.70;99.90
9802;DHT22;4940;50.900;4.672;2022-09-25T05:52:57;9.70;99.90
9802;DHT22;4940;50.900;4.672;2022-09-25T06:00:19;9.70;99.90
9802;DHT22;4940;50.900;4.672;2022-09-25T06:02:50;9.60;99.90
9802;DHT22;4940;50.900;4.672;2022-09-25T06:07:51;9.50;99.90
9802;DHT22;4940;50.900;4.672;2022-09-25T06:20:08;9.90;99.90
9802;DHT22;4940;50.900;4.672;2022-09-25T06:25:06;9.70;99.90
9802;DHT22;4940;50.900;4.672;2022-09-25T06:30:02;9.70;99.90
9802;DHT22;4940;50.900;4.672;2022-09-25T06:42:20;9.90;99.90
9802;DHT22;4940;50.900;4.672;2022-09-25T06:59:36;10.20;99.90
9802;DHT22;4940;50.900;4.672;2022-09-25T07:02:03;10.30;99.90
9802;DHT22;4940;50.900;4.672;2022-09-25T07:04:51;10.40;99.90
9802;DHT22;4940;50.900;4.672;2022-09-25T07:07:17;10.50;99.90
9802;DHT22;4940;50.900;4.672;2022-09-25T07:09:46;10.50;99.90
9802;DHT22;4940;50.900;4.672;2022-09-25T07:14:43;10.50;99.90
9802;DHT22;4940;50.900;4.672;2022-09-25T07:17:11;10.60;99.90
9802;DHT22;4940;50.900;4.672;2022-09-25T07:24:35;10.90;99.90
9802;DHT22;4940;50.900;4.672;2022-09-25T07:27:04;11.00;99.90
9802;DHT22;4940;50.900;4.672;2022-09-25T07:29:31;11.00;99.90
9802;DHT22;4940;50.900;4.672;2022-09-25T07:32:01;11.10;99.90
9802;DHT22;4940;50.900;4.672;2022-09-25T07:34:29;11.50;99.90
9802;DHT22;4940;50.900;4.672;2022-09-25T07:36:57;12.10;99.90
9802;DHT22;4940;50.900;4.672;2022-09-25T07:39:24;12.60;99.90
9802;DHT22;4940;50.900;4.672;2022-09-25T07:41:53;13.40;99.90
9802;DHT22;4940;50.900;4.672;2022-09-25T07:44:20;13.60;99.90
9802;DHT22;4940;50.900;4.672;2022-09-25T07:46:47;15.00;99.90
9802;DHT22;4940;50.900;4.672;2022-09-25T07:49:16;15.70;99.90
9802;DHT22;4940;50.900;4.672;2022-09-25T07:51:44;15.90;99.90
9802;DHT22;4940;50.900;4.672;2022-09-25T07:54:11;17.30;99.90
9802;DHT22;4940;50.900;4.672;2022-09-25T07:56:38;17.90;99.90
9802;DHT22;4940;50.900;4.672;2022-09-25T07:59:05;19.20;99.90
9802;DHT22;4940;50.900;4.672;2022-09-25T08:01:33;18.30;99.90
9802;DHT22;4940;50.900;4.672;2022-09-25T08:04:00;19.20;99.90
9802;DHT22;4940;50.900;4.672;2022-09-25T08:06:32;20.10;99.90
9802;DHT22;4940;50.900;4.672;2022-09-25T08:08:59;19.50;99.90
9802;DHT22;4940;50.900;4.672;2022-09-25T08:11:26;21.10;99.90
9802;DHT22;4940;50.900;4.672;2022-09-25T08:13:54;21.10;99.90
9802;DHT22;4940;50.900;4.672;2022-09-25T08:18:49;22.20;99.90
9802;DHT22;4940;50.900;4.672;2022-09-25T08:21:19;22.50;99.90
9802;DHT22;4940;50.900;4.672;2022-09-25T08:23:50;22.80;99.90
9802;DHT22;4940;50.900;4.672;2022-09-25T08:26:18;23.40;99.90
9802;DHT22;4940;50.900;4.672;2022-09-25T08:28:46;23.40;99.90
9802;DHT22;4940;50.900;4.672;2022-09-25T08:31:14;23.50;99.90
9802;DHT22;4940;50.900;4.672;2022-09-25T08:33:44;23.40;99.90
9802;DHT22;4940;50.900;4.672;2022-09-25T08:36:12;23.70;99.90
9802;DHT22;4940;50.900;4.672;2022-09-25T08:38:39;23.70;99.90
9802;DHT22;4940;50.900;4.672;2022-09-25T08:41:12;23.40;99.90
9802;DHT22;4940;50.900;4.672;2022-09-25T08:43:45;23.40;99.90
9802;DHT22;4940;50.900;4.672;2022-09-25T08:46:18;23.90;99.90
9802;DHT22;4940;50.900;4.672;2022-09-25T08:49:05;27.70;99.90
9802;DHT22;4940;50.900;4.672;2022-09-25T08:51:37;27.40;99.90
9802;DHT22;4940;50.900;4.672;2022-09-25T08:54:07;24.50;99.90
9802;DHT22;4940;50.900;4.672;2022-09-25T08:56:39;24.60;99.90
9802;DHT22;4940;50.900;4.672;2022-09-25T08:59:16;24.60;99.90
9802;DHT22;4940;50.900;4.672;2022-09-25T09:01:50;24.90;99.90
9802;DHT22;4940;50.900;4.672;2022-09-25T09:04:24;25.10;99.90
9802;DHT22;4940;50.900;4.672;2022-09-25T09:06:56;25.50;99.90
9802;DHT22;4940;50.900;4.672;2022-09-25T09:09:27;26.40;99.90
9802;DHT22;4940;50.900;4.672;2022-09-25T09:12:01;25.60;99.90
9802;DHT22;4940;50.900;4.672;2022-09-25T09:14:33;25.70;99.90
9802;DHT22;4940;50.900;4.672;2022-09-25T09:17:04;25.70;99.90
9802;DHT22;4940;50.900;4.672;2022-09-25T09:19:33;25.80;99.90
9802;DHT22;4940;50.900;4.672;2022-09-25T09:22:08;25.90;99.90
9802;DHT22;4940;50.900;4.672;2022-09-25T09:24:45;25.90;99.90
9802;DHT22;4940;50.900;4.672;2022-09-25T09:27:25;25.90;99.90
9802;DHT22;4940;50.900;4.672;2022-09-25T09:30:12;25.80;99.90
9802;DHT22;4940;50.900;4.672;2022-09-25T09:32:59;26.30;99.90
9802;DHT22;4940;50.900;4.672;2022-09-25T09:35:36;26.10;99.90
9802;DHT22;4940;50.900;4.672;2022-09-25T09:38:16;26.10;99.90
9802;DHT22;4940;50.900;4.672;2022-09-25T09:40:59;25.80;99.90
9802;DHT22;4940;50.900;4.672;2022-09-25T09:43:47;25.20;99.90
9802;DHT22;4940;50.900;4.672;2022-09-25T09:46:23;25.30;99.90
9802;DHT22;4940;50.900;4.672;2022-09-25T09:49:00;25.60;99.90
9802;DHT22;4940;50.900;4.672;2022-09-25T09:51:32;25.80;99.90
9802;DHT22;4940;50.900;4.672;2022-09-25T09:54:03;25.80;99.90
9802;DHT22;4940;50.900;4.672;2022-09-25T09:56:33;25.90;99.90
9802;DHT22;4940;50.900;4.672;2022-09-25T09:59:05;25.40;99.90
9802;DHT22;4940;50.900;4.672;2022-09-25T10:01:35;25.80;99.90
9802;DHT22;4940;50.900;4.672;2022-09-25T10:04:05;27.00;99.90
9802;DHT22;4940;50.900;4.672;2022-09-25T10:06:37;25.90;99.90
9802;DHT22;4940;50.900;4.672;2022-09-25T10:09:05;25.80;99.90
9802;DHT22;4940;50.900;4.672;2022-09-25T10:11:35;26.20;99.60
9802;DHT22;4940;50.900;4.672;2022-09-25T10:14:04;24.60;99.50
9802;DHT22;4940;50.900;4.672;2022-09-25T10:16:32;26.00;99.90
9802;DHT22;4940;50.900;4.672;2022-09-25T10:19:04;24.70;99.20
9802;DHT22;4940;50.900;4.672;2022-09-25T10:21:37;25.90;99.50
9802;DHT22;4940;50.900;4.672;2022-09-25T10:24:06;25.90;99.50
9802;DHT22;4940;50.900;4.672;2022-09-25T10:26:34;26.10;99.20
9802;DHT22;4940;50.900;4.672;2022-09-25T10:31:56;25.50;98.10
9802;DHT22;4940;50.900;4.672;2022-09-25T10:34:24;24.20;97.70
9802;DHT22;4940;50.900;4.672;2022-09-25T10:36:53;24.80;97.60
9802;DHT22;4940;50.900;4.672;2022-09-25T10:39:26;25.30;97.00
9802;DHT22;4940;50.900;4.672;2022-09-25T10:41:54;25.30;97.50
9802;DHT22;4940;50.900;4.672;2022-09-25T10:44:29;25.30;98.00
9802;DHT22;4940;50.900;4.672;2022-09-25T10:47:30;29.60;99.10
9802;DHT22;4940;50.900;4.672;2022-09-25T10:50:18;25.60;97.10
9802;DHT22;4940;50.900;4.672;2022-09-25T10:52:47;25.80;98.30
9802;DHT22;4940;50.900;4.672;2022-09-25T10:55:22;25.90;97.10
9802;DHT22;4940;50.900;4.672;2022-09-25T10:58:00;25.60;95.40
9802;DHT22;4940;50.900;4.672;2022-09-25T11:03:17;25.30;96.40
9802;DHT22;4940;50.900;4.672;2022-09-25T11:05:51;25.30;96.40
9802;DHT22;4940;50.900;4.672;2022-09-25T11:08:20;23.70;94.90
9802;DHT22;4940;50.900;4.672;2022-09-25T11:10:50;25.50;95.80
9802;DHT22;4940;50.900;4.672;2022-09-25T11:13:21;25.70;96.10
9802;DHT22;4940;50.900;4.672;2022-09-25T11:15:59;25.60;94.90
9802;DHT22;4940;50.900;4.672;2022-09-25T11:18:36;25.90;95.20
9802;DHT22;4940;50.900;4.672;2022-09-25T11:21:06;25.90;94.60
9802;DHT22;4940;50.900;4.672;2022-09-25T11:24:03;25.90;94.40
9802;DHT22;4940;50.900;4.672;2022-09-25T11:26:35;25.80;93.90
9802;DHT22;4940;50.900;4.672;2022-09-25T11:29:09;25.40;94.10
9802;DHT22;4940;50.900;4.672;2022-09-25T11:31:42;25.20;93.60
9802;DHT22;4940;50.900;4.672;2022-09-25T11:34:16;24.90;94.60
9802;DHT22;4940;50.900;4.672;2022-09-25T11:36:48;24.30;94.60
9802;DHT22;4940;50.900;4.672;2022-09-25T11:39:22;24.10;94.90
9802;DHT22;4940;50.900;4.672;2022-09-25T11:42:12;23.30;94.50
9802;DHT22;4940;50.900;4.672;2022-09-25T11:44:44;23.60;94.90
9802;DHT22;4940;50.900;4.672;2022-09-25T11:47:28;23.40;95.00
9802;DHT22;4940;50.900;4.672;2022-09-25T11:49:58;23.10;95.10
9802;DHT22;4940;50.900;4.672;2022-09-25T11:52:36;22.90;95.80
9802;DHT22;4940;50.900;4.672;2022-09-25T11:58:17;22.70;96.30
9802;DHT22;4940;50.900;4.672;2022-09-25T12:00:55;22.70;96.60
9802;DHT22;4940;50.900;4.672;2022-09-25T12:03:40;22.70;96.80
9802;DHT22;4940;50.900;4.672;2022-09-25T12:09:24;22.60;96.60
9802;DHT22;4940;50.900;4.672;2022-09-25T12:11:59;22.60;96.90
9802;DHT22;4940;50.900;4.672;2022-09-25T12:14:30;22.30;96.20
9802;DHT22;4940;50.900;4.672;2022-09-25T12:17:06;22.20;96.40
9802;DHT22;4940;50.900;4.672;2022-09-25T12:19:43;22.10;97.10
9802;DHT22;4940;50.900;4.672;2022-09-25T12:22:19;22.00;96.70
9802;DHT22;4940;50.900;4.672;2022-09-25T12:24:59;21.90;96.40
9802;DHT22;4940;50.900;4.672;2022-09-25T12:27:40;21.90;97.00
9802;DHT22;4940;50.900;4.672;2022-09-25T12:30:16;21.80;97.40
9802;DHT22;4940;50.900;4.672;2022-09-25T12:32:58;21.90;97.70
9802;DHT22;4940;50.900;4.672;2022-09-25T12:35:41;24.00;98.40
9802;DHT22;4940;50.900;4.672;2022-09-25T12:38:17;21.90;97.40
9802;DHT22;4940;50.900;4.672;2022-09-25T12:40:50;21.80;97.40
9802;DHT22;4940;50.900;4.672;2022-09-25T12:43:23;21.90;97.50
9802;DHT22;4940;50.900;4.672;2022-09-25T12:45:57;21.90;97.60
9802;DHT22;4940;50.900;4.672;2022-09-25T12:48:32;21.90;97.30
9802;DHT22;4940;50.900;4.672;2022-09-25T12:51:05;21.90;97.70
9802;DHT22;4940;50.900;4.672;2022-09-25T12:53:38;21.80;97.60
9802;DHT22;4940;50.900;4.672;2022-09-25T12:56:12;21.60;97.20
9802;DHT22;4940;50.900;4.672;2022-09-25T12:59:05;21.80;97.60
9802;DHT22;4940;50.900;4.672;2022-09-25T13:01:42;22.20;97.70
9802;DHT22;4940;50.900;4.672;2022-09-25T13:04:26;21.80;97.70
9802;DHT22;4940;50.900;4.672;2022-09-25T13:07:08;21.80;97.80
9802;DHT22;4940;50.900;4.672;2022-09-25T13:09:42;21.80;97.90
9802;DHT22;4940;50.900;4.672;2022-09-25T13:12:17;21.80;98.20
9802;DHT22;4940;50.900;4.672;2022-09-25T13:14:50;21.70;98.80
9802;DHT22;4940;50.900;4.672;2022-09-25T13:17:19;21.70;99.10
9802;DHT22;4940;50.900;4.672;2022-09-25T13:19:47;21.60;99.10
9802;DHT22;4940;50.900;4.672;2022-09-25T13:22:20;21.80;99.20
9802;DHT22;4940;50.900;4.672;2022-09-25T13:24:51;21.90;99.20
9802;DHT22;4940;50.900;4.672;2022-09-25T13:27:23;21.80;99.00
9802;DHT22;4940;50.900;4.672;2022-09-25T13:29:53;21.70;98.60
9802;DHT22;4940;50.900;4.672;2022-09-25T13:32:23;21.70;98.60
9802;DHT22;4940;50.900;4.672;2022-09-25T13:34:55;21.50;98.70
9802;DHT22;4940;50.900;4.672;2022-09-25T13:37:27;21.50;99.10
9802;DHT22;4940;50.900;4.672;2022-09-25T13:39:57;21.70;98.90
9802;DHT22;4940;50.900;4.672;2022-09-25T13:42:43;21.20;98.50
9802;DHT22;4940;50.900;4.672;2022-09-25T13:45:31;21.20;98.80
9802;DHT22;4940;50.900;4.672;2022-09-25T13:48:00;21.20;99.10
9802;DHT22;4940;50.900;4.672;2022-09-25T13:50:42;21.10;98.90
9802;DHT22;4940;50.900;4.672;2022-09-25T13:53:19;21.10;99.60
9802;DHT22;4940;50.900;4.672;2022-09-25T13:59:18;21.00;98.70
9802;DHT22;4940;50.900;4.672;2022-09-25T14:01:48;20.80;98.60
9802;DHT22;4940;50.900;4.672;2022-09-25T14:04:26;20.70;98.70
9802;DHT22;4940;50.900;4.672;2022-09-25T14:07:02;20.80;98.50
9802;DHT22;4940;50.900;4.672;2022-09-25T14:09:33;20.70;98.70
9802;DHT22;4940;50.900;4.672;2022-09-25T14:12:06;20.50;98.80
9802;DHT22;4940;50.900;4.672;2022-09-25T14:14:41;20.50;98.70
9802;DHT22;4940;50.900;4.672;2022-09-25T14:17:13;20.50;98.90
9802;DHT22;4940;50.900;4.672;2022-09-25T14:19:44;20.50;98.70
9802;DHT22;4940;50.900;4.672;2022-09-25T14:22:20;20.40;98.50
9802;DHT22;4940;50.900;4.672;2022-09-25T14:24:50;20.30;98.50
9802;DHT22;4940;50.900;4.672;2022-09-25T14:27:21;20.10;98.60
9802;DHT22;4940;50.900;4.672;2022-09-25T14:29:49;20.10;98.70
9802;DHT22;4940;50.900;4.672;2022-09-25T14:32:27;20.00;98.80
9802;DHT22;4940;50.900;4.672;2022-09-25T14:35:13;19.90;98.90
9802;DHT22;4940;50.900;4.672;2022-09-25T14:38:01;19.90;99.20
9802;DHT22;4940;50.900;4.672;2022-09-25T14:40:35;19.70;99.10
9802;DHT22;4940;50.900;4.672;2022-09-25T14:43:24;21.40;99.90
9802;DHT22;4940;50.900;4.672;2022-09-25T14:46:03;19.60;99.40
9802;DHT22;4940;50.900;4.672;2022-09-25T14:48:37;19.60;99.50
9802;DHT22;4940;50.900;4.672;2022-09-25T14:51:07;19.50;99.60
9802;DHT22;4940;50.900;4.672;2022-09-25T14:53:39;19.50;99.60
9802;DHT22;4940;50.900;4.672;2022-09-25T14:56:09;19.50;99.60
9802;DHT22;4940;50.900;4.672;2022-09-25T14:58:43;19.40;99.60
9802;DHT22;4940;50.900;4.672;2022-09-25T15:06:28;19.40;99.90
9802;DHT22;4940;50.900;4.672;2022-09-25T15:13:06;19.40;99.90
9802;DHT22;4940;50.900;4.672;2022-09-25T15:19:24;19.30;99.90
9802;DHT22;4940;50.900;4.672;2022-09-25T15:24:42;18.40;99.90
9802;DHT22;4940;50.900;4.672;2022-09-25T15:27:12;19.10;99.90
9802;DHT22;4940;50.900;4.672;2022-09-25T15:29:44;19.30;99.90
9802;DHT22;4940;50.900;4.672;2022-09-25T15:32:16;19.20;99.90
9802;DHT22;4940;50.900;4.672;2022-09-25T15:34:44;19.20;99.90
9802;DHT22;4940;50.900;4.672;2022-09-25T15:37:28;19.20;99.90
9802;DHT22;4940;50.900;4.672;2022-09-25T15:39:58;19.30;99.90
9802;DHT22;4940;50.900;4.672;2022-09-25T15:42:46;19.20;99.90
9802;DHT22;4940;50.900;4.672;2022-09-25T15:45:37;19.30;99.90
9802;DHT22;4940;50.900;4.672;2022-09-25T15:48:27;19.30;99.90
9802;DHT22;4940;50.900;4.672;2022-09-25T15:51:00;19.30;99.90
9802;DHT22;4940;50.900;4.672;2022-09-25T15:53:48;19.30;99.90
9802;DHT22;4940;50.900;4.672;2022-09-25T15:56:19;19.30;99.90
9802;DHT22;4940;50.900;4.672;2022-09-25T16:01:31;19.20;99.90
9802;DHT22;4940;50.900;4.672;2022-09-25T16:04:22;19.20;99.90
9802;DHT22;4940;50.900;4.672;2022-09-25T16:07:47;19.10;99.90
9802;DHT22;4940;50.900;4.672;2022-09-25T16:11:03;19.10;99.90
9802;DHT22;4940;50.900;4.672;2022-09-25T16:13:40;19.20;99.90
9802;DHT22;4940;50.900;4.672;2022-09-25T16:19:31;19.10;99.90
9802;DHT22;4940;50.900;4.672;2022-09-25T16:22:00;19.00;99.90
9802;DHT22;4940;50.900;4.672;2022-09-25T16:24:33;19.00;99.90
9802;DHT22;4940;50.900;4.672;2022-09-25T16:27:02;19.00;99.90
9802;DHT22;4940;50.900;4.672;2022-09-25T16:29:31;19.00;99.90
9802;DHT22;4940;50.900;4.672;2022-09-25T16:32:01;18.90;99.90
9802;DHT22;4940;50.900;4.672;2022-09-25T16:34:33;18.90;99.90
9802;DHT22;4940;50.900;4.672;2022-09-25T16:37:03;18.90;99.90
9802;DHT22;4940;50.900;4.672;2022-09-25T16:39:32;18.80;99.90
9802;DHT22;4940;50.900;4.672;2022-09-25T16:42:23;18.70;99.90
9802;DHT22;4940;50.900;4.672;2022-09-25T16:45:01;18.70;99.90
9802;DHT22;4940;50.900;4.672;2022-09-25T16:47:30;18.60;99.90
9802;DHT22;4940;50.900;4.672;2022-09-25T16:50:01;18.60;99.90
9802;DHT22;4940;50.900;4.672;2022-09-25T16:52:31;18.50;99.90
9802;DHT22;4940;50.900;4.672;2022-09-25T16:55:04;18.40;99.90
9802;DHT22;4940;50.900;4.672;2022-09-25T16:57:35;18.50;99.90
9802;DHT22;4940;50.900;4.672;2022-09-25T17:00:03;18.40;99.90
9802;DHT22;4940;50.900;4.672;2022-09-25T17:02:34;18.30;99.90
9802;DHT22;4940;50.900;4.672;2022-09-25T17:05:07;18.30;99.90
9802;DHT22;4940;50.900;4.672;2022-09-25T17:07:35;18.30;99.90
9802;DHT22;4940;50.900;4.672;2022-09-25T17:10:03;18.20;99.90
9802;DHT22;4940;50.900;4.672;2022-09-25T17:12:30;17.90;99.90
9802;DHT22;4940;50.900;4.672;2022-09-25T17:14:59;18.00;99.90
9802;DHT22;4940;50.900;4.672;2022-09-25T17:17:26;17.80;99.90
9802;DHT22;4940;50.900;4.672;2022-09-25T17:19:55;17.70;99.90
9802;DHT22;4940;50.900;4.672;2022-09-25T17:22:24;17.70;99.90
9802;DHT22;4940;50.900;4.672;2022-09-25T17:24:58;17.50;99.90
9802;DHT22;4940;50.900;4.672;2022-09-25T17:29:54;17.70;99.90
9802;DHT22;4940;50.900;4.672;2022-09-25T17:37:16;17.10;99.90
9802;DHT22;4940;50.900;4.672;2022-09-25T17:39:44;17.00;99.90
9802;DHT22;4940;50.900;4.672;2022-09-25T17:42:12;16.80;99.90
9802;DHT22;4940;50.900;4.672;2022-09-25T17:44:39;16.80;99.90
9802;DHT22;4940;50.900;4.672;2022-09-25T17:47:08;16.70;99.90
9802;DHT22;4940;50.900;4.672;2022-09-25T17:49:37;16.70;99.90
9802;DHT22;4940;50.900;4.672;2022-09-25T17:54:32;16.60;99.90
9802;DHT22;4940;50.900;4.672;2022-09-25T17:57:00;16.50;99.90
9802;DHT22;4940;50.900;4.672;2022-09-25T17:59:28;16.40;99.90
9802;DHT22;4940;50.900;4.672;2022-09-25T18:01:56;16.40;99.90
9802;DHT22;4940;50.900;4.672;2022-09-25T18:04:24;16.40;99.90
9802;DHT22;4940;50.900;4.672;2022-09-25T18:06:52;16.40;99.90
9802;DHT22;4940;50.900;4.672;2022-09-25T18:09:19;16.30;99.90
9802;DHT22;4940;50.900;4.672;2022-09-25T18:11:47;16.50;99.90
9802;DHT22;4940;50.900;4.672;2022-09-25T18:14:16;16.30;99.90
9802;DHT22;4940;50.900;4.672;2022-09-25T18:16:43;16.30;99.90
9802;DHT22;4940;50.900;4.672;2022-09-25T18:19:14;16.20;99.90
9802;DHT22;4940;50.900;4.672;2022-09-25T18:24:46;16.00;99.90
9802;DHT22;4940;50.900;4.672;2022-09-25T18:27:17;16.10;99.90
9802;DHT22;4940;50.900;4.672;2022-09-25T18:29:46;15.90;99.90
9802;DHT22;4940;50.900;4.672;2022-09-25T18:34:41;15.80;99.90
9802;DHT22;4940;50.900;4.672;2022-09-25T18:37:09;15.80;99.90
9802;DHT22;4940;50.900;4.672;2022-09-25T18:39:36;15.70;99.90
9802;DHT22;4940;50.900;4.672;2022-09-25T18:42:04;15.60;99.90
9802;DHT22;4940;50.900;4.672;2022-09-25T18:44:31;15.50;99.90
9802;DHT22;4940;50.900;4.672;2022-09-25T18:47:03;15.40;99.90
9802;DHT22;4940;50.900;4.672;2022-09-25T18:49:31;15.40;99.90
9802;DHT22;4940;50.900;4.672;2022-09-25T18:51:58;15.40;99.90
9802;DHT22;4940;50.900;4.672;2022-09-25T18:54:26;15.30;99.90
9802;DHT22;4940;50.900;4.672;2022-09-25T18:56:54;15.20;99.90
9802;DHT22;4940;50.900;4.672;2022-09-25T19:01:51;15.00;99.90
9802;DHT22;4940;50.900;4.672;2022-09-25T19:04:20;15.10;99.90
9802;DHT22;4940;50.900;4.672;2022-09-25T19:06:47;15.00;99.90
9802;DHT22;4940;50.900;4.672;2022-09-25T19:09:15;15.00;99.90
9802;DHT22;4940;50.900;4.672;2022-09-25T19:14:10;14.80;99.90
9802;DHT22;4940;50.900;4.672;2022-09-25T19:16:39;14.80;99.90
9802;DHT22;4940;50.900;4.672;2022-09-25T19:21:35;14.80;99.90